Time;durP1;ratioP1;P1;durP2;ratioP2;P2;SDS_P1;SDS_P2;PMS_P1;PMS_P2;Temp;Humidity;BMP_temperature;BMP_pressure;BME280_temperature;BME280_humidity;BME280_pressure;Samples;Min_cycle;Max_cycle;Signal;HPM_P1;HPM_P2
2023/12/19 00:01:30;;;;;;;6.57;5.97;;;5.40;99.90;;;;;;5044323;28;20448;-77
2023/12/19 00:03:58;;;;;;;6.40;5.80;;;5.60;99.90;;;;;;5042224;28;20217;-78
2023/12/19 00:06:26;;;;;;;6.10;5.70;;;5.40;99.90;;;;;;5044377;28;20744;-78
2023/12/19 00:08:55;;;;;;;5.97;5.13;;;5.20;99.90;;;;;;5045791;28;20209;-79
2023/12/19 00:11:24;;;;;;;8.50;6.82;;;5.00;99.90;;;;;;5043024;28;20204;-79
2023/12/19 00:13:52;;;;;;;6.80;6.22;;;4.90;99.90;;;;;;5047511;28;21055;-79
2023/12/19 00:16:21;;;;;;;6.43;5.95;;;4.80;99.90;;;;;;5043135;28;20287;-78
2023/12/19 00:18:49;;;;;;;6.47;5.85;;;4.80;99.90;;;;;;5048417;28;20208;-78
2023/12/19 00:21:17;;;;;;;6.57;5.97;;;4.90;99.90;;;;;;5043552;28;20193;-78
2023/12/19 00:23:45;;;;;;;6.95;5.57;;;4.80;99.90;;;;;;5043047;28;20305;-79
2023/12/19 00:26:13;;;;;;;6.45;5.95;;;4.80;99.90;;;;;;5044575;28;20955;-79
2023/12/19 00:28:44;;;;;;;6.60;5.95;;;4.90;99.90;;;;;;5048521;28;20877;-78
2023/12/19 00:31:20;;;;;;;6.10;5.60;;;4.90;99.90;;;;;;5047567;28;20197;-80
2023/12/19 00:33:49;;;;;;;6.07;5.47;;;4.70;99.90;;;;;;5049105;28;20308;-79
2023/12/19 00:36:21;;;;;;;6.53;5.13;;;4.60;99.90;;;;;;5046173;28;20689;-79
2023/12/19 00:38:50;;;;;;;6.30;5.20;;;4.60;99.90;;;;;;5047585;28;20456;-78
2023/12/19 00:41:19;;;;;;;5.18;4.75;;;4.70;99.90;;;;;;5046195;28;20197;-81
2023/12/19 00:43:49;;;;;;;5.30;4.80;;;4.80;99.90;;;;;;5047669;28;20225;-78
2023/12/19 00:46:17;;;;;;;4.43;4.10;;;4.90;99.90;;;;;;5042676;28;20209;-80
2023/12/19 00:48:45;;;;;;;3.63;3.42;;;5.20;99.90;;;;;;5044425;28;20512;-79
2023/12/19 00:51:14;;;;;;;3.67;3.35;;;5.30;99.90;;;;;;5045335;28;20237;-79
2023/12/19 00:53:42;;;;;;;3.43;3.20;;;5.50;99.90;;;;;;5048398;28;20227;-79
2023/12/19 00:56:11;;;;;;;3.50;3.30;;;5.70;99.90;;;;;;5045163;28;20471;-78
2023/12/19 00:58:40;;;;;;;3.65;3.40;;;5.80;99.90;;;;;;5050222;28;20202;-77
2023/12/19 01:01:10;;;;;;;2.65;2.55;;;5.90;99.90;;;;;;5046271;28;20251;-79
2023/12/19 01:03:38;;;;;;;3.00;2.90;;;5.90;99.90;;;;;;5047773;28;20249;-78
2023/12/19 01:06:07;;;;;;;2.88;2.60;;;6.00;99.90;;;;;;5047633;28;20221;-81
2023/12/19 01:08:36;;;;;;;2.40;2.20;;;6.00;99.90;;;;;;5046528;28;20686;-81
2023/12/19 01:11:07;;;;;;;2.50;2.30;;;6.20;99.90;;;;;;5048051;28;20198;-80
2023/12/19 01:13:35;;;;;;;3.00;2.40;;;6.30;99.90;;;;;;5049393;28;20802;-79
2023/12/19 01:16:03;;;;;;;2.20;2.10;;;6.40;99.90;;;;;;5048338;28;20809;-78
2023/12/19 01:18:33;;;;;;;2.73;2.10;;;6.50;99.90;;;;;;5049895;28;20471;-80
2023/12/19 01:21:01;;;;;;;2.20;2.10;;;6.60;99.90;;;;;;5047398;28;20454;-78
2023/12/19 01:23:29;;;;;;;2.40;2.30;;;6.60;99.90;;;;;;5045174;28;20464;-77
2023/12/19 01:25:57;;;;;;;2.83;2.63;;;6.60;99.90;;;;;;5046568;28;20444;-78
2023/12/19 01:28:26;;;;;;;3.40;3.20;;;6.50;99.90;;;;;;5045791;28;20456;-80
2023/12/19 01:30:54;;;;;;;3.90;3.50;;;6.30;99.90;;;;;;5047683;28;20451;-80
2023/12/19 01:33:22;;;;;;;3.53;3.27;;;6.10;99.90;;;;;;5047173;28;20475;-78
2023/12/19 01:35:52;;;;;;;3.70;3.50;;;5.80;99.90;;;;;;5045659;28;20457;-78
2023/12/19 01:38:20;;;;;;;3.75;3.25;;;5.70;99.90;;;;;;5047986;28;20437;-80
2023/12/19 01:40:48;;;;;;;4.33;3.93;;;5.60;99.90;;;;;;5048623;28;20266;-79
2023/12/19 01:43:19;;;;;;;4.13;3.67;;;5.60;99.90;;;;;;5047922;28;20918;-79
2023/12/19 01:45:48;;;;;;;3.33;3.10;;;5.50;99.90;;;;;;5046303;28;20684;-78
2023/12/19 01:48:18;;;;;;;4.25;3.65;;;5.40;99.90;;;;;;5044982;28;20554;-78
2023/12/19 01:50:47;;;;;;;4.60;3.78;;;5.50;99.90;;;;;;5053018;28;20201;-77
2023/12/19 01:53:18;;;;;;;3.90;3.63;;;5.50;99.90;;;;;;5051358;28;20302;-77
2023/12/19 01:55:46;;;;;;;3.65;3.35;;;5.40;99.90;;;;;;5050583;28;20258;-77
2023/12/19 01:58:15;;;;;;;3.67;3.38;;;5.30;99.90;;;;;;5053236;28;20194;-78
2023/12/19 02:00:43;;;;;;;3.72;3.50;;;5.30;99.90;;;;;;5047472;28;20394;-79
2023/12/19 02:03:12;;;;;;;3.00;2.80;;;5.30;99.90;;;;;;5052453;28;21087;-80
2023/12/19 02:05:42;;;;;;;3.38;3.17;;;5.30;99.90;;;;;;5051946;28;20221;-81
2023/12/19 02:08:10;;;;;;;5.17;3.40;;;5.30;99.90;;;;;;5051159;28;20262;-79
2023/12/19 02:10:40;;;;;;;3.22;2.92;;;5.40;99.90;;;;;;5052403;28;20462;-78
2023/12/19 02:13:08;;;;;;;3.13;2.65;;;5.30;99.90;;;;;;5053575;28;20221;-79
2023/12/19 02:15:36;;;;;;;2.70;2.53;;;5.30;99.90;;;;;;5051134;28;20193;-79
2023/12/19 02:18:14;;;;;;;2.70;2.60;;;5.50;99.90;;;;;;5051306;28;20454;-80
2023/12/19 02:20:42;;;;;;;2.53;2.33;;;5.40;99.90;;;;;;5047931;28;21018;-81
2023/12/19 02:23:12;;;;;;;3.10;2.90;;;5.50;99.90;;;;;;5054389;28;20483;-80
2023/12/19 02:25:41;;;;;;;2.77;2.20;;;5.40;99.90;;;;;;5052808;28;20455;-78
2023/12/19 02:28:10;;;;;;;3.23;2.43;;;5.40;99.90;;;;;;5053401;28;20455;-82
2023/12/19 02:30:38;;;;;;;3.17;2.97;;;5.40;99.90;;;;;;5050856;28;20883;-79
2023/12/19 02:33:10;;;;;;;3.03;2.80;;;5.40;99.90;;;;;;5053800;28;20479;-79
2023/12/19 02:35:39;;;;;;;3.75;3.40;;;5.30;99.90;;;;;;5051381;28;20246;-79
2023/12/19 02:38:07;;;;;;;3.25;3.00;;;5.30;99.90;;;;;;5044482;28;20835;-79
2023/12/19 02:40:36;;;;;;;2.97;2.73;;;5.20;99.90;;;;;;5050828;28;20217;-78
2023/12/19 02:43:05;;;;;;;2.92;2.72;;;5.10;99.90;;;;;;5051861;28;20479;-78
2023/12/19 02:45:34;;;;;;;3.08;2.88;;;5.10;99.90;;;;;;5048589;28;20696;-79
2023/12/19 02:48:02;;;;;;;2.75;2.65;;;5.00;99.90;;;;;;5053960;28;20209;-80
2023/12/19 02:50:31;;;;;;;2.67;2.47;;;5.10;99.90;;;;;;5049984;28;20229;-78
2023/12/19 02:52:59;;;;;;;2.47;2.37;;;5.20;99.90;;;;;;5051164;28;20213;-79
2023/12/19 02:55:28;;;;;;;2.40;2.20;;;5.30;99.90;;;;;;5051869;28;20479;-78
2023/12/19 02:57:59;;;;;;;1.93;1.83;;;5.40;99.90;;;;;;5049054;28;20663;-78
2023/12/19 03:00:27;;;;;;;2.37;2.23;;;5.60;99.90;;;;;;5049351;28;20465;-79
2023/12/19 03:02:58;;;;;;;1.77;1.67;;;5.80;99.90;;;;;;5051007;28;20483;-79
2023/12/19 03:05:27;;;;;;;2.27;2.17;;;6.00;99.90;;;;;;5051142;28;20447;-80
2023/12/19 03:07:56;;;;;;;1.70;1.60;;;6.10;99.90;;;;;;5048488;28;20468;-80
2023/12/19 03:10:24;;;;;;;2.00;1.90;;;6.10;99.90;;;;;;5049977;28;20447;-79
2023/12/19 03:12:52;;;;;;;2.40;2.30;;;6.20;99.90;;;;;;5051944;28;20483;-80
2023/12/19 03:15:24;;;;;;;1.80;1.70;;;6.30;99.90;;;;;;5048965;28;21103;-79
2023/12/19 03:17:52;;;;;;;2.20;1.90;;;6.30;99.70;;;;;;5048643;28;20512;-78
2023/12/19 03:20:21;;;;;;;1.70;1.60;;;6.30;96.80;;;;;;5053450;28;20473;-80
2023/12/19 03:22:49;;;;;;;1.60;1.50;;;6.30;95.20;;;;;;5055211;28;20472;-79
2023/12/19 03:25:17;;;;;;;1.70;1.60;;;6.30;94.70;;;;;;5054319;28;20533;-79
2023/12/19 03:27:45;;;;;;;2.60;1.70;;;6.30;94.40;;;;;;5051199;28;20972;-79
2023/12/19 03:30:14;;;;;;;2.10;2.00;;;6.30;94.70;;;;;;5051430;28;20451;-79
2023/12/19 03:32:43;;;;;;;2.93;2.67;;;6.10;97.10;;;;;;5050793;28;20482;-79
2023/12/19 03:35:12;;;;;;;2.80;2.70;;;5.90;98.20;;;;;;5051309;28;20459;-78
2023/12/19 03:37:40;;;;;;;2.93;2.77;;;5.80;99.40;;;;;;5050514;28;20454;-78
2023/12/19 03:40:09;;;;;;;2.63;2.43;;;5.70;99.90;;;;;;5052290;28;20447;-79
2023/12/19 03:42:37;;;;;;;2.50;2.40;;;5.50;99.90;;;;;;5050687;28;20484;-78
2023/12/19 03:45:08;;;;;;;1.97;1.87;;;5.50;99.90;;;;;;5046602;28;20534;-79
2023/12/19 03:47:36;;;;;;;2.60;2.03;;;5.50;99.90;;;;;;5049757;28;20456;-78
2023/12/19 03:50:07;;;;;;;2.20;2.05;;;5.60;99.90;;;;;;5049294;28;20933;-78
2023/12/19 03:52:36;;;;;;;2.40;2.20;;;5.50;99.90;;;;;;5051749;28;20236;-78
2023/12/19 03:55:05;;;;;;;4.00;2.42;;;5.30;99.90;;;;;;5049145;28;20687;-79
2023/12/19 03:57:33;;;;;;;2.40;2.25;;;5.20;99.90;;;;;;5050393;28;20208;-77
2023/12/19 04:00:03;;;;;;;2.77;2.47;;;5.30;99.90;;;;;;5050268;28;20194;-78
2023/12/19 04:02:31;;;;;;;2.28;2.08;;;5.20;99.90;;;;;;5050948;28;20479;-80
2023/12/19 04:04:59;;;;;;;2.60;2.40;;;5.50;99.90;;;;;;5053864;28;20278;-79
2023/12/19 04:07:29;;;;;;;2.47;2.28;;;5.50;99.90;;;;;;5051059;28;20320;-80
2023/12/19 04:09:57;;;;;;;2.30;1.90;;;5.40;99.90;;;;;;5054269;28;20192;-80
2023/12/19 04:12:29;;;;;;;2.40;2.15;;;5.40;99.90;;;;;;5053144;28;20471;-80
2023/12/19 04:14:57;;;;;;;2.22;2.13;;;5.30;99.90;;;;;;5055391;28;20621;-80
2023/12/19 04:17:25;;;;;;;2.30;2.10;;;5.20;99.90;;;;;;5047267;28;20605;-79
2023/12/19 04:19:54;;;;;;;1.98;1.88;;;5.40;99.90;;;;;;5055918;28;20447;-79
2023/12/19 04:22:22;;;;;;;1.80;1.70;;;5.60;99.90;;;;;;5053834;28;20221;-79
2023/12/19 04:24:52;;;;;;;2.00;1.90;;;5.80;99.90;;;;;;5053105;28;20544;-78
2023/12/19 04:27:21;;;;;;;1.93;1.83;;;5.90;99.90;;;;;;5052279;28;20541;-78
2023/12/19 04:29:51;;;;;;;2.40;2.20;;;6.00;96.80;;;;;;5054946;28;20456;-80
2023/12/19 04:32:19;;;;;;;2.03;1.80;;;5.90;94.70;;;;;;5049603;28;20482;-78
2023/12/19 04:34:47;;;;;;;1.87;1.60;;;5.90;94.20;;;;;;5051543;28;21062;-80
2023/12/19 04:37:15;;;;;;;1.87;1.77;;;6.00;92.30;;;;;;5051883;28;20545;-81
2023/12/19 04:39:44;;;;;;;1.93;1.80;;;6.00;92.10;;;;;;5050591;28;20794;-79
2023/12/19 04:42:17;;;;;;;4.10;2.03;;;5.90;92.20;;;;;;5052339;28;20450;-80
2023/12/19 04:44:46;;;;;;;2.00;1.90;;;6.00;91.30;;;;;;5051881;28;20433;-79
2023/12/19 04:47:15;;;;;;;1.90;1.70;;;6.00;90.80;;;;;;5049297;28;20464;-79
2023/12/19 04:49:43;;;;;;;2.40;2.30;;;6.00;90.50;;;;;;5051636;28;20520;-77
2023/12/19 04:52:12;;;;;;;2.07;1.97;;;6.00;90.40;;;;;;5051067;28;20470;-80
2023/12/19 04:54:40;;;;;;;1.70;1.60;;;6.00;90.30;;;;;;5047035;28;20467;-79
2023/12/19 04:57:08;;;;;;;2.17;2.07;;;6.00;90.70;;;;;;5046351;28;20448;-77
2023/12/19 04:59:38;;;;;;;1.90;1.80;;;6.00;90.00;;;;;;5052126;28;20478;-78
2023/12/19 05:02:06;;;;;;;1.97;1.87;;;6.00;89.50;;;;;;5037728;28;20452;-79
2023/12/19 05:04:34;;;;;;;1.90;1.80;;;5.90;91.60;;;;;;5049005;28;20566;-78
2023/12/19 05:07:03;;;;;;;2.00;1.90;;;5.80;90.60;;;;;;5046860;28;20488;-78
2023/12/19 05:09:31;;;;;;;2.00;1.90;;;5.80;90.10;;;;;;5051286;28;20464;-78
2023/12/19 05:11:59;;;;;;;2.00;1.90;;;5.90;88.80;;;;;;5050591;28;20544;-77
2023/12/19 05:14:28;;;;;;;2.03;1.90;;;6.00;88.10;;;;;;5050619;28;20614;-79
2023/12/19 05:16:59;;;;;;;2.33;1.87;;;6.00;84.70;;;;;;5048619;28;20507;-80
2023/12/19 05:19:27;;;;;;;1.80;1.70;;;5.90;83.50;;;;;;5048027;28;20529;-78
2023/12/19 05:21:56;;;;;;;2.33;2.00;;;5.90;86.90;;;;;;5044603;28;20749;-78
2023/12/19 05:24:24;;;;;;;2.00;1.90;;;5.80;83.20;;;;;;5055148;28;20475;-83
2023/12/19 05:26:52;;;;;;;1.90;1.80;;;6.00;92.70;;;;;;5053551;28;20459;-78
2023/12/19 05:29:22;;;;;;;1.93;1.83;;;6.10;92.90;;;;;;5053644;28;20471;-79
2023/12/19 05:31:51;;;;;;;2.20;2.10;;;6.10;92.50;;;;;;5052676;28;20450;-79
2023/12/19 05:34:22;;;;;;;1.80;1.70;;;6.10;88.90;;;;;;5054224;28;20467;-77
2023/12/19 05:36:50;;;;;;;1.93;1.83;;;6.00;88.00;;;;;;5055148;28;20467;-78
2023/12/19 05:39:18;;;;;;;2.13;2.03;;;6.00;87.20;;;;;;5056027;28;20454;-78
2023/12/19 05:41:47;;;;;;;1.93;1.83;;;6.00;86.20;;;;;;5055790;28;20745;-77
2023/12/19 05:44:16;;;;;;;1.85;1.75;;;5.90;83.70;;;;;;5055574;28;20480;-77
2023/12/19 05:46:46;;;;;;;1.90;1.80;;;5.90;80.60;;;;;;5053544;28;20658;-78
2023/12/19 05:49:14;;;;;;;1.80;1.70;;;5.80;80.70;;;;;;5055101;28;20993;-76
2023/12/19 05:51:44;;;;;;;2.30;2.20;;;5.80;79.90;;;;;;5056202;28;20452;-75
2023/12/19 05:54:12;;;;;;;2.10;2.00;;;5.80;78.50;;;;;;5056445;28;21012;-76
2023/12/19 05:56:40;;;;;;;2.03;1.75;;;5.80;77.30;;;;;;5056902;28;20217;-77
2023/12/19 05:59:08;;;;;;;2.30;2.10;;;5.90;78.30;;;;;;5054465;28;20265;-75
2023/12/19 06:01:42;;;;;;;1.97;1.87;;;5.80;79.10;;;;;;5050684;28;21106;-76
2023/12/19 06:04:11;;;;;;;1.87;1.77;;;5.90;76.30;;;;;;5053746;28;20472;-75
2023/12/19 06:06:43;;;;;;;2.00;1.90;;;5.90;77.50;;;;;;5045641;28;20562;-76
2023/12/19 06:09:13;;;;;;;2.40;2.20;;;5.90;76.90;;;;;;5056390;28;20554;-75
2023/12/19 06:11:41;;;;;;;2.20;2.10;;;5.90;78.00;;;;;;5053428;28;20509;-76
2023/12/19 06:14:10;;;;;;;2.90;1.93;;;5.80;76.50;;;;;;5045534;28;20587;-75
2023/12/19 06:16:38;;;;;;;2.17;2.00;;;5.90;75.30;;;;;;5052448;28;20995;-75
2023/12/19 06:19:06;;;;;;;2.33;2.13;;;6.00;75.80;;;;;;5050505;28;20483;-75
2023/12/19 06:21:34;;;;;;;2.17;2.07;;;6.00;91.60;;;;;;5053132;28;20454;-76
2023/12/19 06:24:03;;;;;;;1.63;1.53;;;5.90;71.20;;;;;;5049514;28;20500;-76
2023/12/19 06:26:33;;;;;;;4.23;1.80;;;5.80;70.00;;;;;;5047358;28;20461;-75
2023/12/19 06:29:01;;;;;;;2.10;1.50;;;5.90;69.80;;;;;;5047618;28;20459;-76
2023/12/19 06:31:29;;;;;;;1.80;1.70;;;5.90;69.40;;;;;;5051905;28;20453;-76
2023/12/19 06:33:58;;;;;;;2.10;2.00;;;5.80;70.60;;;;;;5049168;28;20467;-75
2023/12/19 06:36:31;;;;;;;1.90;1.80;;;5.80;68.80;;;;;;5051471;28;20882;-76
2023/12/19 06:39:00;;;;;;;1.77;1.67;;;5.60;70.30;;;;;;5052413;28;20443;-74
2023/12/19 06:41:29;;;;;;;2.23;2.13;;;5.50;68.50;;;;;;5051934;28;20486;-74
2023/12/19 06:43:58;;;;;;;2.30;2.20;;;5.60;90.00;;;;;;5050968;28;20490;-75
2023/12/19 06:46:26;;;;;;;2.53;2.33;;;5.70;72.50;;;;;;5048968;28;20197;-75
2023/12/19 06:48:54;;;;;;;2.00;1.90;;;5.80;73.30;;;;;;5053484;28;20216;-75
2023/12/19 06:51:24;;;;;;;2.70;2.50;;;5.70;71.20;;;;;;5050106;28;20487;-76
2023/12/19 06:53:55;;;;;;;3.43;3.17;;;5.60;70.90;;;;;;5053504;28;20495;-75
2023/12/19 06:56:26;;;;;;;3.50;3.20;;;5.60;70.20;;;;;;5050531;28;21054;-76
2023/12/19 06:58:55;;;;;;;3.30;2.97;;;5.60;72.50;;;;;;5054494;28;20468;-77
2023/12/19 07:01:26;;;;;;;5.95;4.13;;;5.50;75.40;;;;;;5053091;28;20452;-76
2023/12/19 07:03:55;;;;;;;5.07;3.80;;;5.30;73.20;;;;;;5052637;28;20307;-75
2023/12/19 07:06:23;;;;;;;5.35;4.68;;;5.20;73.40;;;;;;5054177;28;20182;-76
2023/12/19 07:08:52;;;;;;;7.30;6.60;;;5.20;76.50;;;;;;5051655;28;20205;-75
2023/12/19 07:11:21;;;;;;;4.80;4.50;;;5.20;78.50;;;;;;5051633;28;20233;-76
2023/12/19 07:13:50;;;;;;;5.50;3.72;;;5.20;82.10;;;;;;5052887;28;20222;-75
2023/12/19 07:16:19;;;;;;;4.32;4.03;;;5.00;84.10;;;;;;5012580;28;1129643;-76
2023/12/19 07:18:49;;;;;;;19.85;3.88;;;5.00;96.40;;;;;;5050192;28;20201;-75
2023/12/19 07:21:22;;;;;;;3.73;3.43;;;4.80;86.40;;;;;;5054985;28;20216;-75
2023/12/19 07:23:50;;;;;;;3.70;3.40;;;4.80;88.60;;;;;;5051872;28;20472;-75
2023/12/19 07:26:26;;;;;;;3.73;3.53;;;4.90;90.20;;;;;;5052536;28;20542;-77
2023/12/19 07:28:57;;;;;;;4.35;4.05;;;4.90;91.10;;;;;;5054351;28;20501;-76
2023/12/19 07:31:26;;;;;;;5.32;2.70;;;4.80;91.90;;;;;;5055257;28;20308;-76
2023/12/19 07:33:58;;;;;;;2.70;2.50;;;4.70;91.70;;;;;;5053664;28;20239;-75
2023/12/19 07:36:27;;;;;;;4.22;3.50;;;4.60;92.40;;;;;;5051434;28;20241;-75
2023/12/19 07:38:56;;;;;;;3.75;3.15;;;4.70;94.10;;;;;;5053674;28;20201;-77
2023/12/19 07:41:26;;;;;;;3.80;3.33;;;4.60;93.90;;;;;;5054161;28;20230;-74
2023/12/19 07:43:55;;;;;;;4.80;3.47;;;4.50;93.90;;;;;;5054181;28;20232;-77
2023/12/19 07:46:23;;;;;;;3.22;2.92;;;4.50;93.90;;;;;;5048455;28;20207;-75
2023/12/19 07:48:52;;;;;;;3.42;3.13;;;4.50;93.90;;;;;;5052323;28;20214;-75
2023/12/19 07:51:24;;;;;;;3.55;3.25;;;4.40;93.90;;;;;;5049758;28;20648;-75
2023/12/19 07:53:54;;;;;;;4.85;3.53;;;4.40;94.60;;;;;;5051054;28;20225;-75
2023/12/19 07:56:23;;;;;;;4.63;3.00;;;4.50;96.30;;;;;;5049395;28;20205;-76
2023/12/19 07:58:52;;;;;;;3.83;3.30;;;4.40;96.20;;;;;;5052562;28;20259;-75
2023/12/19 08:01:20;;;;;;;4.55;3.30;;;4.40;98.80;;;;;;5060458;28;20455;-83
2023/12/19 08:03:49;;;;;;;4.22;3.92;;;4.30;98.10;;;;;;5066251;28;20221;-82
2023/12/19 08:06:18;;;;;;;3.58;3.22;;;4.20;99.30;;;;;;5064990;28;20193;-81
2023/12/19 08:08:49;;;;;;;2.92;2.72;;;4.30;99.90;;;;;;5067576;28;20208;-82
2023/12/19 08:11:18;;;;;;;4.07;3.67;;;4.40;99.90;;;;;;5064769;28;20205;-83
2023/12/19 08:13:48;;;;;;;5.65;3.90;;;4.40;99.90;;;;;;5067163;28;20228;-82
2023/12/19 08:16:16;;;;;;;5.68;5.13;;;4.60;99.90;;;;;;5065752;28;20194;-86
2023/12/19 08:18:45;;;;;;;3.03;2.77;;;4.70;99.90;;;;;;5064023;28;20682;-76
2023/12/19 08:21:14;;;;;;;4.22;3.50;;;4.80;99.90;;;;;;5052727;28;20491;-76
2023/12/19 08:23:42;;;;;;;3.58;3.25;;;5.00;99.90;;;;;;5054538;28;20216;-76
2023/12/19 08:26:12;;;;;;;3.77;3.47;;;5.20;99.90;;;;;;5051037;28;20185;-76
2023/12/19 08:28:40;;;;;;;6.60;4.23;;;5.20;99.90;;;;;;5051572;28;20440;-75
2023/12/19 08:31:08;;;;;;;3.60;3.40;;;5.40;99.90;;;;;;5042272;28;20466;-76
2023/12/19 08:33:38;;;;;;;3.17;2.97;;;5.30;99.90;;;;;;5049898;28;20506;-77
2023/12/19 08:36:07;;;;;;;3.55;3.35;;;5.40;99.90;;;;;;5046965;28;21044;-76
2023/12/19 08:38:55;;;;;;;2.95;2.67;;;5.40;99.90;;;;;;5039632;28;21265;-77
2023/12/19 08:41:25;;;;;;;4.47;3.70;;;5.50;99.90;;;;;;5043365;28;20217;-77
2023/12/19 08:43:53;;;;;;;2.90;2.70;;;5.60;99.90;;;;;;5043122;28;20476;-77
2023/12/19 08:46:21;;;;;;;3.90;3.58;;;5.70;99.90;;;;;;5035714;28;20204;-77
2023/12/19 08:48:50;;;;;;;4.10;3.33;;;5.80;98.00;;;;;;5044153;28;20202;-76
2023/12/19 08:51:18;;;;;;;4.05;3.75;;;6.00;99.90;;;;;;5051175;28;20455;-76
2023/12/19 08:53:47;;;;;;;3.77;3.47;;;5.90;99.90;;;;;;5053271;28;20278;-75
2023/12/19 08:56:15;;;;;;;3.27;3.07;;;5.90;99.90;;;;;;5053390;28;20512;-77
2023/12/19 08:58:48;;;;;;;3.77;3.50;;;6.00;99.90;;;;;;5050781;28;20495;-74
2023/12/19 09:01:17;;;;;;;5.57;3.97;;;6.00;99.90;;;;;;5053197;28;20486;-75
2023/12/19 09:03:46;;;;;;;3.60;3.40;;;6.00;99.90;;;;;;5052963;28;20209;-77
2023/12/19 09:06:14;;;;;;;3.80;3.50;;;6.10;99.90;;;;;;5051662;28;20460;-76
2023/12/19 09:08:43;;;;;;;3.90;3.35;;;6.30;99.90;;;;;;5053163;28;20463;-76
2023/12/19 09:11:11;;;;;;;4.87;2.90;;;6.20;99.90;;;;;;5053560;28;20297;-77
2023/12/19 09:13:40;;;;;;;3.40;3.10;;;6.30;99.90;;;;;;5051490;28;20827;-75
2023/12/19 09:16:10;;;;;;;2.53;2.43;;;6.40;99.90;;;;;;5051501;28;20709;-76
2023/12/19 09:18:38;;;;;;;3.30;2.60;;;6.60;96.30;;;;;;5051188;28;20494;-76
2023/12/19 09:21:07;;;;;;;4.70;4.23;;;6.80;99.20;;;;;;5053516;28;20513;-75
2023/12/19 09:23:35;;;;;;;4.03;3.73;;;7.00;99.90;;;;;;5052821;28;20474;-75
2023/12/19 09:26:08;;;;;;;4.07;3.73;;;7.10;99.90;;;;;;5036737;28;20443;-75
2023/12/19 09:28:37;;;;;;;4.90;4.50;;;7.20;99.90;;;;;;5051390;28;20455;-76
2023/12/19 09:31:07;;;;;;;5.17;4.87;;;7.40;99.90;;;;;;5054136;28;20464;-76
2023/12/19 09:33:38;;;;;;;6.80;5.00;;;7.60;99.90;;;;;;5052182;28;20511;-76
2023/12/19 09:36:08;;;;;;;5.60;5.10;;;7.90;99.90;;;;;;5050924;28;20447;-77
2023/12/19 09:38:38;;;;;;;6.00;5.47;;;8.20;99.90;;;;;;5053882;28;20464;-76
2023/12/19 09:41:06;;;;;;;5.37;4.77;;;8.50;99.90;;;;;;5051167;28;20464;-76
2023/12/19 09:43:35;;;;;;;5.50;4.97;;;8.80;99.90;;;;;;5050581;28;20469;-76
2023/12/19 09:46:03;;;;;;;5.60;5.10;;;9.00;99.90;;;;;;5055462;28;20545;-76
2023/12/19 09:48:34;;;;;;;10.63;5.93;;;9.20;99.90;;;;;;5053784;28;20435;-76
2023/12/19 09:51:09;;;;;;;8.07;6.60;;;9.40;99.90;;;;;;5047507;28;20495;-76
2023/12/19 09:53:39;;;;;;;3.73;3.43;;;9.40;99.90;;;;;;5051708;28;20532;-76
2023/12/19 09:56:09;;;;;;;4.40;4.07;;;9.50;99.90;;;;;;5052582;28;20455;-76
2023/12/19 09:58:40;;;;;;;5.23;4.73;;;9.60;99.90;;;;;;5052767;28;21058;-76
2023/12/19 10:01:09;;;;;;;5.90;5.20;;;9.60;99.90;;;;;;5048920;28;20469;-76
2023/12/19 10:03:38;;;;;;;7.70;6.40;;;9.50;99.90;;;;;;5050893;28;21048;-75
2023/12/19 10:06:09;;;;;;;7.00;6.40;;;9.40;99.90;;;;;;5047071;28;20467;-76
2023/12/19 10:08:40;;;;;;;11.20;7.20;;;9.40;99.90;;;;;;5048994;28;20451;-75
2023/12/19 10:11:09;;;;;;;9.03;6.07;;;9.30;99.90;;;;;;5056771;28;20492;-75
2023/12/19 10:13:37;;;;;;;7.63;5.03;;;9.40;99.90;;;;;;5055829;28;20477;-76
2023/12/19 10:16:08;;;;;;;10.23;5.10;;;9.20;99.90;;;;;;5052289;28;20459;-77
2023/12/19 10:18:57;;;;;;;6.80;4.47;;;9.10;99.90;;;;;;5070547;28;20476;-77
2023/12/19 10:21:28;;;;;;;6.70;6.00;;;9.10;99.90;;;;;;5054893;28;20447;-76
2023/12/19 10:24:07;;;;;;;5.30;4.20;;;9.10;99.90;;;;;;5055342;28;20500;-77
2023/12/19 10:26:36;;;;;;;5.13;4.63;;;9.20;99.90;;;;;;5053094;28;20535;-76
2023/12/19 10:29:05;;;;;;;8.27;4.50;;;9.30;99.90;;;;;;5051333;28;20467;-76
2023/12/19 10:31:34;;;;;;;6.20;4.93;;;9.20;99.90;;;;;;5046134;28;20460;-77
2023/12/19 10:34:05;;;;;;;5.50;4.90;;;9.20;99.90;;;;;;5053178;28;21007;-77
2023/12/19 10:36:36;;;;;;;9.43;5.40;;;9.10;99.90;;;;;;5054536;28;20552;-76
2023/12/19 10:39:05;;;;;;;8.23;5.93;;;9.10;99.90;;;;;;5055277;28;20554;-77
2023/12/19 10:41:37;;;;;;;5.90;5.50;;;8.90;99.90;;;;;;5054343;28;20451;-77
2023/12/19 10:44:08;;;;;;;6.17;5.67;;;8.80;99.90;;;;;;5047816;28;20480;-76
2023/12/19 10:46:38;;;;;;;7.77;5.20;;;8.70;99.90;;;;;;5052445;28;20518;-77
2023/12/19 10:49:07;;;;;;;6.33;5.60;;;8.60;99.90;;;;;;5054310;28;20435;-78
2023/12/19 10:51:41;;;;;;;6.73;6.10;;;8.60;99.90;;;;;;5056032;28;20459;-78
2023/12/19 10:54:11;;;;;;;6.90;5.67;;;8.50;99.90;;;;;;5053396;28;20555;-76
2023/12/19 10:56:53;;;;;;;8.10;6.17;;;8.40;99.90;;;;;;5053468;28;20458;-76
2023/12/19 10:59:31;;;;;;;8.43;6.93;;;8.40;99.90;;;;;;5054931;28;20480;-76
2023/12/19 11:02:11;;;;;;;7.83;7.03;;;8.30;99.90;;;;;;5055815;28;20795;-76
2023/12/19 11:04:42;;;;;;;8.00;7.30;;;8.20;99.90;;;;;;5055935;28;20937;-76
2023/12/19 11:07:15;;;;;;;7.63;6.73;;;8.20;99.90;;;;;;5056055;28;20491;-76
2023/12/19 11:09:47;;;;;;;8.00;7.20;;;8.20;99.90;;;;;;5054904;28;20461;-76
2023/12/19 11:12:16;;;;;;;10.00;7.73;;;8.20;99.90;;;;;;5054136;28;20476;-76
2023/12/19 11:14:45;;;;;;;9.80;8.37;;;8.10;99.90;;;;;;5051424;28;20447;-76
2023/12/19 11:17:18;;;;;;;9.90;8.87;;;8.10;99.90;;;;;;5053065;28;21012;-76
2023/12/19 11:19:52;;;;;;;10.47;9.47;;;8.30;99.90;;;;;;5043803;28;20480;-77
2023/12/19 11:22:31;;;;;;;10.03;9.13;;;8.40;99.90;;;;;;5037886;28;20468;-77
2023/12/19 11:25:05;;;;;;;9.97;8.97;;;8.80;99.90;;;;;;5037520;28;20526;-76
2023/12/19 11:27:41;;;;;;;8.97;8.07;;;8.80;99.90;;;;;;5053680;28;20459;-76
2023/12/19 11:30:37;;;;;;;9.40;7.70;;;8.80;99.90;;;;;;5035741;28;21097;-77
2023/12/19 11:33:07;;;;;;;8.87;7.60;;;8.60;99.90;;;;;;5041668;28;20555;-76
2023/12/19 11:35:35;;;;;;;8.20;7.37;;;8.50;99.90;;;;;;5042685;28;20547;-76
2023/12/19 11:38:24;;;;;;;11.97;8.93;;;8.30;99.90;;;;;;5045862;28;20478;-76
2023/12/19 11:40:54;;;;;;;8.63;7.60;;;8.10;99.90;;;;;;5033138;28;21176;-77
2023/12/19 11:43:58;;;;;;;9.07;7.87;;;8.00;99.90;;;;;;5046394;28;20471;-76
2023/12/19 11:46:27;;;;;;;11.40;9.67;;;8.00;99.90;;;;;;5045349;28;20538;-76
2023/12/19 11:48:56;;;;;;;9.27;8.33;;;8.00;99.90;;;;;;5050274;28;20448;-77
2023/12/19 11:51:55;;;;;;;9.50;8.53;;;8.00;99.90;;;;;;5044494;28;20838;-77
2023/12/19 11:54:25;;;;;;;9.20;8.30;;;8.10;99.90;;;;;;5048773;28;20553;-76
2023/12/19 11:57:01;;;;;;;10.33;8.63;;;8.20;99.90;;;;;;5047299;28;20457;-77
2023/12/19 11:59:50;;;;;;;10.80;9.07;;;8.30;99.90;;;;;;5051960;28;20518;-76
2023/12/19 12:02:32;;;;;;;9.90;8.90;;;8.40;99.90;;;;;;5054597;28;20462;-76
2023/12/19 12:05:09;;;;;;;11.60;10.07;;;8.30;99.90;;;;;;5047772;28;20537;-78
2023/12/19 12:07:47;;;;;;;10.37;8.93;;;8.30;99.90;;;;;;5042640;28;20451;-78
2023/12/19 12:10:21;;;;;;;16.93;9.57;;;8.10;99.90;;;;;;5038578;28;20451;-77
2023/12/19 12:12:51;;;;;;;9.67;8.73;;;8.20;99.90;;;;;;5047908;28;20556;-76
2023/12/19 12:15:21;;;;;;;9.87;8.93;;;8.10;99.90;;;;;;5046711;28;20454;-76
2023/12/19 12:17:50;;;;;;;12.13;10.00;;;7.90;99.90;;;;;;5034105;28;20979;-76
2023/12/19 12:20:24;;;;;;;10.27;9.17;;;7.90;99.90;;;;;;5041821;28;20472;-76
2023/12/19 12:22:54;;;;;;;11.93;9.73;;;7.80;99.90;;;;;;5037762;28;20482;-77
2023/12/19 12:25:24;;;;;;;13.97;9.33;;;7.80;99.90;;;;;;5032033;28;20528;-76
2023/12/19 12:28:07;;;;;;;10.53;9.40;;;7.80;99.90;;;;;;5044769;28;20459;-76
2023/12/19 12:30:36;;;;;;;10.33;9.10;;;7.70;99.90;;;;;;5046766;28;20454;-76
2023/12/19 12:33:05;;;;;;;9.90;8.90;;;7.70;99.90;;;;;;5041955;28;20507;-78
2023/12/19 12:35:35;;;;;;;11.37;10.23;;;7.70;99.90;;;;;;5039174;28;20463;-77
2023/12/19 12:38:07;;;;;;;10.43;9.43;;;7.60;99.90;;;;;;5043438;28;20440;-78
2023/12/19 12:40:37;;;;;;;14.10;10.37;;;7.60;99.90;;;;;;5049613;28;20476;-77
2023/12/19 12:43:33;;;;;;;11.80;9.47;;;7.60;99.90;;;;;;5052332;28;20459;-76
2023/12/19 12:46:10;;;;;;;12.17;8.70;;;7.60;99.90;;;;;;5050759;28;20456;-77
2023/12/19 12:48:40;;;;;;;10.53;9.73;;;7.50;99.90;;;;;;5053884;28;20524;-78
2023/12/19 12:51:09;;;;;;;11.07;9.87;;;7.40;99.90;;;;;;5051404;28;20443;-77
2023/12/19 12:53:38;;;;;;;11.23;9.93;;;7.30;99.90;;;;;;5053724;28;20472;-76
2023/12/19 12:56:12;;;;;;;12.07;10.70;;;7.30;99.90;;;;;;5051998;28;21047;-76
2023/12/19 12:58:40;;;;;;;10.53;9.53;;;7.30;99.90;;;;;;5041903;28;20460;-74
2023/12/19 13:01:09;;;;;;;10.37;9.30;;;7.20;99.90;;;;;;5046291;28;20474;-76
2023/12/19 13:03:38;;;;;;;10.90;9.83;;;7.20;99.90;;;;;;5045699;28;20554;-76
2023/12/19 13:06:07;;;;;;;10.77;9.67;;;7.10;99.90;;;;;;5049843;28;20539;-76
2023/12/19 13:08:37;;;;;;;11.30;10.20;;;7.10;99.90;;;;;;5037759;28;20455;-77
2023/12/19 13:11:07;;;;;;;12.13;9.43;;;7.10;99.90;;;;;;5040456;28;20486;-77